sensor_id;sensor_type;location;lat;lon;timestamp;P1;durP1;ratioP1;P2;durP2;ratioP2
12591;SDS011;6361;52.120;5.108;2023-03-30T00:01:09;10.32;;;4.78;;
12591;SDS011;6361;52.120;5.108;2023-03-30T00:03:38;12.10;;;4.70;;
12591;SDS011;6361;52.120;5.108;2023-03-30T00:06:04;7.43;;;4.65;;
12591;SDS011;6361;52.120;5.108;2023-03-30T00:08:30;8.25;;;4.28;;
12591;SDS011;6361;52.120;5.108;2023-03-30T00:11:00;9.75;;;3.95;;
12591;SDS011;6361;52.120;5.108;2023-03-30T00:13:37;8.15;;;4.20;;
12591;SDS011;6361;52.120;5.108;2023-03-30T00:16:03;9.73;;;4.00;;
12591;SDS011;6361;52.120;5.108;2023-03-30T00:18:30;8.80;;;4.13;;
12591;SDS011;6361;52.120;5.108;2023-03-30T00:20:58;12.82;;;4.00;;
12591;SDS011;6361;52.120;5.108;2023-03-30T00:23:23;7.28;;;3.60;;
12591;SDS011;6361;52.120;5.108;2023-03-30T00:25:49;11.35;;;4.07;;
12591;SDS011;6361;52.120;5.108;2023-03-30T00:28:15;8.00;;;3.72;;
12591;SDS011;6361;52.120;5.108;2023-03-30T00:30:40;8.43;;;3.97;;
12591;SDS011;6361;52.120;5.108;2023-03-30T00:33:06;9.73;;;3.90;;
12591;SDS011;6361;52.120;5.108;2023-03-30T00:35:31;11.48;;;4.28;;
12591;SDS011;6361;52.120;5.108;2023-03-30T00:37:57;7.25;;;3.80;;
12591;SDS011;6361;52.120;5.108;2023-03-30T00:40:25;8.55;;;3.95;;
12591;SDS011;6361;52.120;5.108;2023-03-30T00:42:56;9.27;;;3.80;;
12591;SDS011;6361;52.120;5.108;2023-03-30T00:50:16;7.20;;;3.80;;
12591;SDS011;6361;52.120;5.108;2023-03-30T00:52:45;8.30;;;4.00;;
12591;SDS011;6361;52.120;5.108;2023-03-30T00:55:12;10.70;;;3.85;;
12591;SDS011;6361;52.120;5.108;2023-03-30T00:57:39;8.40;;;3.72;;
12591;SDS011;6361;52.120;5.108;2023-03-30T01:00:05;10.60;;;3.63;;
12591;SDS011;6361;52.120;5.108;2023-03-30T01:02:32;8.35;;;4.25;;
12591;SDS011;6361;52.120;5.108;2023-03-30T01:05:01;8.07;;;3.90;;
12591;SDS011;6361;52.120;5.108;2023-03-30T01:07:28;7.93;;;4.00;;
12591;SDS011;6361;52.120;5.108;2023-03-30T01:09:55;6.43;;;3.60;;
12591;SDS011;6361;52.120;5.108;2023-03-30T01:12:21;8.80;;;3.80;;
12591;SDS011;6361;52.120;5.108;2023-03-30T01:14:46;7.88;;;3.40;;
12591;SDS011;6361;52.120;5.108;2023-03-30T01:17:19;6.10;;;3.38;;
12591;SDS011;6361;52.120;5.108;2023-03-30T01:26:30;9.55;;;3.30;;
12591;SDS011;6361;52.120;5.108;2023-03-30T01:31:21;8.32;;;3.47;;
12591;SDS011;6361;52.120;5.108;2023-03-30T01:45:24;7.63;;;2.67;;
12591;SDS011;6361;52.120;5.108;2023-03-30T01:48:57;12.73;;;3.75;;
12591;SDS011;6361;52.120;5.108;2023-03-30T01:51:07;9.40;;;3.22;;
12591;SDS011;6361;52.120;5.108;2023-03-30T01:53:37;8.02;;;3.10;;
12591;SDS011;6361;52.120;5.108;2023-03-30T01:58:53;7.80;;;3.35;;
12591;SDS011;6361;52.120;5.108;2023-03-30T02:01:21;7.38;;;3.53;;
12591;SDS011;6361;52.120;5.108;2023-03-30T02:03:48;7.10;;;3.60;;
12591;SDS011;6361;52.120;5.108;2023-03-30T02:06:19;4.90;;;2.78;;
12591;SDS011;6361;52.120;5.108;2023-03-30T02:08:48;7.20;;;3.25;;
12591;SDS011;6361;52.120;5.108;2023-03-30T02:11:15;9.75;;;3.33;;
12591;SDS011;6361;52.120;5.108;2023-03-30T02:13:40;12.25;;;3.15;;
12591;SDS011;6361;52.120;5.108;2023-03-30T02:16:19;6.25;;;3.65;;
12591;SDS011;6361;52.120;5.108;2023-03-30T02:18:47;7.18;;;3.30;;
12591;SDS011;6361;52.120;5.108;2023-03-30T02:21:12;4.78;;;2.85;;
12591;SDS011;6361;52.120;5.108;2023-03-30T02:23:39;10.02;;;3.53;;
12591;SDS011;6361;52.120;5.108;2023-03-30T02:26:06;8.13;;;3.38;;
12591;SDS011;6361;52.120;5.108;2023-03-30T02:28:33;10.10;;;3.08;;
12591;SDS011;6361;52.120;5.108;2023-03-30T02:30:59;7.93;;;3.65;;
12591;SDS011;6361;52.120;5.108;2023-03-30T02:39:06;5.22;;;2.97;;
12591;SDS011;6361;52.120;5.108;2023-03-30T02:47:30;7.95;;;3.58;;
12591;SDS011;6361;52.120;5.108;2023-03-30T02:50:04;11.57;;;3.53;;
12591;SDS011;6361;52.120;5.108;2023-03-30T02:55:24;9.98;;;3.47;;
12591;SDS011;6361;52.120;5.108;2023-03-30T02:58:13;6.30;;;3.33;;
12591;SDS011;6361;52.120;5.108;2023-03-30T03:00:45;5.88;;;3.05;;
12591;SDS011;6361;52.120;5.108;2023-03-30T03:03:34;5.32;;;3.30;;
12591;SDS011;6361;52.120;5.108;2023-03-30T03:06:01;8.32;;;3.05;;
12591;SDS011;6361;52.120;5.108;2023-03-30T03:08:34;9.43;;;3.50;;
12591;SDS011;6361;52.120;5.108;2023-03-30T03:11:01;9.60;;;3.22;;
12591;SDS011;6361;52.120;5.108;2023-03-30T03:13:27;9.07;;;3.13;;
12591;SDS011;6361;52.120;5.108;2023-03-30T03:15:53;7.90;;;3.05;;
12591;SDS011;6361;52.120;5.108;2023-03-30T03:18:20;8.70;;;3.05;;
12591;SDS011;6361;52.120;5.108;2023-03-30T03:20:51;6.70;;;3.10;;
12591;SDS011;6361;52.120;5.108;2023-03-30T03:23:17;6.93;;;2.70;;
12591;SDS011;6361;52.120;5.108;2023-03-30T03:25:42;6.80;;;2.85;;
12591;SDS011;6361;52.120;5.108;2023-03-30T03:28:07;9.52;;;2.90;;
12591;SDS011;6361;52.120;5.108;2023-03-30T03:30:33;6.63;;;2.60;;
12591;SDS011;6361;52.120;5.108;2023-03-30T03:32:59;6.72;;;2.67;;
12591;SDS011;6361;52.120;5.108;2023-03-30T03:35:25;10.85;;;2.58;;
12591;SDS011;6361;52.120;5.108;2023-03-30T03:37:51;9.65;;;2.20;;
12591;SDS011;6361;52.120;5.108;2023-03-30T03:40:18;4.63;;;2.53;;
12591;SDS011;6361;52.120;5.108;2023-03-30T03:42:44;6.57;;;2.50;;
12591;SDS011;6361;52.120;5.108;2023-03-30T03:45:10;7.22;;;2.15;;
12591;SDS011;6361;52.120;5.108;2023-03-30T03:47:35;6.00;;;2.00;;
12591;SDS011;6361;52.120;5.108;2023-03-30T03:50:00;4.47;;;1.90;;
12591;SDS011;6361;52.120;5.108;2023-03-30T03:52:33;4.60;;;2.10;;
12591;SDS011;6361;52.120;5.108;2023-03-30T03:54:58;6.68;;;2.08;;
12591;SDS011;6361;52.120;5.108;2023-03-30T03:57:24;5.13;;;1.70;;
12591;SDS011;6361;52.120;5.108;2023-03-30T03:59:49;6.10;;;1.85;;
12591;SDS011;6361;52.120;5.108;2023-03-30T04:02:16;6.63;;;2.30;;
12591;SDS011;6361;52.120;5.108;2023-03-30T04:04:41;7.55;;;1.90;;
12591;SDS011;6361;52.120;5.108;2023-03-30T04:07:08;5.45;;;2.20;;
12591;SDS011;6361;52.120;5.108;2023-03-30T04:09:33;5.45;;;2.00;;
12591;SDS011;6361;52.120;5.108;2023-03-30T04:11:58;9.15;;;2.10;;
12591;SDS011;6361;52.120;5.108;2023-03-30T04:14:24;3.58;;;1.88;;
12591;SDS011;6361;52.120;5.108;2023-03-30T04:16:49;8.52;;;2.30;;
12591;SDS011;6361;52.120;5.108;2023-03-30T04:19:17;11.30;;;2.20;;
12591;SDS011;6361;52.120;5.108;2023-03-30T04:21:42;8.55;;;2.20;;
12591;SDS011;6361;52.120;5.108;2023-03-30T04:24:13;8.57;;;2.45;;
12591;SDS011;6361;52.120;5.108;2023-03-30T04:26:38;7.68;;;2.47;;
12591;SDS011;6361;52.120;5.108;2023-03-30T04:29:05;8.65;;;2.40;;
12591;SDS011;6361;52.120;5.108;2023-03-30T04:31:32;11.63;;;2.40;;
12591;SDS011;6361;52.120;5.108;2023-03-30T04:34:07;10.63;;;2.38;;
12591;SDS011;6361;52.120;5.108;2023-03-30T04:36:33;11.23;;;2.60;;
12591;SDS011;6361;52.120;5.108;2023-03-30T04:38:59;10.80;;;2.20;;
12591;SDS011;6361;52.120;5.108;2023-03-30T04:41:30;9.57;;;2.42;;
12591;SDS011;6361;52.120;5.108;2023-03-30T04:44:03;11.23;;;2.58;;
12591;SDS011;6361;52.120;5.108;2023-03-30T04:46:33;9.52;;;2.30;;
12591;SDS011;6361;52.120;5.108;2023-03-30T04:48:59;11.85;;;2.63;;
12591;SDS011;6361;52.120;5.108;2023-03-30T04:51:25;10.05;;;2.28;;
12591;SDS011;6361;52.120;5.108;2023-03-30T04:53:50;15.13;;;2.90;;
12591;SDS011;6361;52.120;5.108;2023-03-30T04:56:15;14.88;;;3.05;;
12591;SDS011;6361;52.120;5.108;2023-03-30T04:58:41;10.93;;;2.60;;
12591;SDS011;6361;52.120;5.108;2023-03-30T05:01:06;19.20;;;3.13;;
12591;SDS011;6361;52.120;5.108;2023-03-30T05:03:32;11.75;;;2.90;;
12591;SDS011;6361;52.120;5.108;2023-03-30T05:05:58;12.70;;;3.35;;
12591;SDS011;6361;52.120;5.108;2023-03-30T05:08:23;15.98;;;3.13;;
12591;SDS011;6361;52.120;5.108;2023-03-30T05:10:49;15.82;;;3.03;;
12591;SDS011;6361;52.120;5.108;2023-03-30T05:13:15;19.75;;;3.03;;
12591;SDS011;6361;52.120;5.108;2023-03-30T05:15:41;18.38;;;3.50;;
12591;SDS011;6361;52.120;5.108;2023-03-30T05:18:06;21.67;;;3.22;;
12591;SDS011;6361;52.120;5.108;2023-03-30T05:20:32;15.98;;;3.65;;
12591;SDS011;6361;52.120;5.108;2023-03-30T05:22:57;16.33;;;3.20;;
12591;SDS011;6361;52.120;5.108;2023-03-30T05:25:23;18.80;;;3.33;;
12591;SDS011;6361;52.120;5.108;2023-03-30T05:27:48;17.13;;;3.35;;
12591;SDS011;6361;52.120;5.108;2023-03-30T05:30:14;22.02;;;3.92;;
12591;SDS011;6361;52.120;5.108;2023-03-30T05:32:40;19.75;;;3.28;;
12591;SDS011;6361;52.120;5.108;2023-03-30T05:35:06;18.05;;;3.40;;
12591;SDS011;6361;52.120;5.108;2023-03-30T05:37:31;23.33;;;3.58;;
12591;SDS011;6361;52.120;5.108;2023-03-30T05:39:57;17.35;;;3.85;;
12591;SDS011;6361;52.120;5.108;2023-03-30T05:42:23;20.08;;;3.42;;
12591;SDS011;6361;52.120;5.108;2023-03-30T05:44:48;20.50;;;3.88;;
12591;SDS011;6361;52.120;5.108;2023-03-30T05:47:13;18.65;;;3.60;;
12591;SDS011;6361;52.120;5.108;2023-03-30T05:49:40;20.83;;;3.92;;
12591;SDS011;6361;52.120;5.108;2023-03-30T05:52:05;26.80;;;4.00;;
12591;SDS011;6361;52.120;5.108;2023-03-30T05:54:31;19.08;;;3.60;;
12591;SDS011;6361;52.120;5.108;2023-03-30T05:56:56;26.33;;;4.03;;
12591;SDS011;6361;52.120;5.108;2023-03-30T05:59:22;21.05;;;3.55;;
12591;SDS011;6361;52.120;5.108;2023-03-30T06:01:47;18.73;;;3.28;;
12591;SDS011;6361;52.120;5.108;2023-03-30T06:04:13;22.92;;;4.63;;
12591;SDS011;6361;52.120;5.108;2023-03-30T06:06:40;19.48;;;3.42;;
12591;SDS011;6361;52.120;5.108;2023-03-30T06:09:05;21.45;;;3.20;;
12591;SDS011;6361;52.120;5.108;2023-03-30T06:11:31;23.13;;;3.80;;
12591;SDS011;6361;52.120;5.108;2023-03-30T06:13:58;15.88;;;3.15;;
12591;SDS011;6361;52.120;5.108;2023-03-30T06:16:24;22.48;;;3.63;;
12591;SDS011;6361;52.120;5.108;2023-03-30T06:18:50;22.25;;;3.63;;
12591;SDS011;6361;52.120;5.108;2023-03-30T06:21:15;21.58;;;3.58;;
12591;SDS011;6361;52.120;5.108;2023-03-30T06:23:41;19.85;;;3.10;;
12591;SDS011;6361;52.120;5.108;2023-03-30T06:26:07;15.55;;;3.67;;
12591;SDS011;6361;52.120;5.108;2023-03-30T06:28:33;27.67;;;3.42;;
12591;SDS011;6361;52.120;5.108;2023-03-30T06:30:59;23.88;;;3.60;;
12591;SDS011;6361;52.120;5.108;2023-03-30T06:33:27;26.60;;;3.92;;
12591;SDS011;6361;52.120;5.108;2023-03-30T06:35:53;27.42;;;3.75;;
12591;SDS011;6361;52.120;5.108;2023-03-30T06:38:19;23.25;;;3.67;;
12591;SDS011;6361;52.120;5.108;2023-03-30T06:40:45;29.48;;;3.67;;
12591;SDS011;6361;52.120;5.108;2023-03-30T06:43:15;24.88;;;3.28;;
12591;SDS011;6361;52.120;5.108;2023-03-30T06:45:51;29.77;;;4.95;;
12591;SDS011;6361;52.120;5.108;2023-03-30T06:48:18;22.98;;;3.55;;
12591;SDS011;6361;52.120;5.108;2023-03-30T06:50:47;23.88;;;3.65;;
12591;SDS011;6361;52.120;5.108;2023-03-30T06:53:13;26.63;;;3.75;;
12591;SDS011;6361;52.120;5.108;2023-03-30T06:55:39;21.83;;;3.25;;
12591;SDS011;6361;52.120;5.108;2023-03-30T06:58:04;22.48;;;3.88;;
12591;SDS011;6361;52.120;5.108;2023-03-30T07:00:30;25.85;;;3.50;;
12591;SDS011;6361;52.120;5.108;2023-03-30T07:02:55;23.27;;;3.70;;
12591;SDS011;6361;52.120;5.108;2023-03-30T07:05:21;25.40;;;3.78;;
12591;SDS011;6361;52.120;5.108;2023-03-30T07:07:49;26.25;;;4.00;;
12591;SDS011;6361;52.120;5.108;2023-03-30T07:10:16;33.78;;;4.03;;
12591;SDS011;6361;52.120;5.108;2023-03-30T07:12:42;20.50;;;3.42;;
12591;SDS011;6361;52.120;5.108;2023-03-30T07:15:07;24.65;;;3.05;;
12591;SDS011;6361;52.120;5.108;2023-03-30T07:17:33;30.80;;;4.07;;
12591;SDS011;6361;52.120;5.108;2023-03-30T07:19:59;30.13;;;4.95;;
12591;SDS011;6361;52.120;5.108;2023-03-30T07:22:25;19.80;;;4.28;;
12591;SDS011;6361;52.120;5.108;2023-03-30T07:24:51;22.10;;;3.38;;
12591;SDS011;6361;52.120;5.108;2023-03-30T07:27:17;20.02;;;3.47;;
12591;SDS011;6361;52.120;5.108;2023-03-30T07:29:42;24.27;;;4.20;;
12591;SDS011;6361;52.120;5.108;2023-03-30T07:32:07;20.52;;;3.83;;
12591;SDS011;6361;52.120;5.108;2023-03-30T07:34:33;23.83;;;3.65;;
12591;SDS011;6361;52.120;5.108;2023-03-30T07:36:58;29.42;;;3.72;;
12591;SDS011;6361;52.120;5.108;2023-03-30T07:39:25;21.58;;;3.72;;
12591;SDS011;6361;52.120;5.108;2023-03-30T07:41:51;29.13;;;4.18;;
12591;SDS011;6361;52.120;5.108;2023-03-30T07:44:18;22.95;;;4.03;;
12591;SDS011;6361;52.120;5.108;2023-03-30T07:46:43;30.88;;;4.57;;
12591;SDS011;6361;52.120;5.108;2023-03-30T07:49:08;22.77;;;3.88;;
12591;SDS011;6361;52.120;5.108;2023-03-30T07:51:34;22.00;;;4.20;;
12591;SDS011;6361;52.120;5.108;2023-03-30T07:54:00;25.58;;;3.67;;
12591;SDS011;6361;52.120;5.108;2023-03-30T07:56:25;32.08;;;3.63;;
12591;SDS011;6361;52.120;5.108;2023-03-30T07:58:51;23.98;;;4.18;;
12591;SDS011;6361;52.120;5.108;2023-03-30T08:01:16;28.70;;;4.28;;
12591;SDS011;6361;52.120;5.108;2023-03-30T08:03:42;28.90;;;4.25;;
12591;SDS011;6361;52.120;5.108;2023-03-30T08:06:09;25.52;;;3.88;;
12591;SDS011;6361;52.120;5.108;2023-03-30T08:08:35;27.77;;;3.90;;
12591;SDS011;6361;52.120;5.108;2023-03-30T08:11:03;29.48;;;4.50;;
12591;SDS011;6361;52.120;5.108;2023-03-30T08:13:29;29.00;;;4.60;;
12591;SDS011;6361;52.120;5.108;2023-03-30T08:15:56;21.58;;;3.83;;
12591;SDS011;6361;52.120;5.108;2023-03-30T08:18:22;20.98;;;3.65;;
12591;SDS011;6361;52.120;5.108;2023-03-30T08:20:51;24.67;;;3.80;;
12591;SDS011;6361;52.120;5.108;2023-03-30T08:23:17;21.45;;;3.38;;
12591;SDS011;6361;52.120;5.108;2023-03-30T08:25:43;23.27;;;4.60;;
12591;SDS011;6361;52.120;5.108;2023-03-30T08:28:09;36.15;;;5.22;;
12591;SDS011;6361;52.120;5.108;2023-03-30T08:30:35;35.47;;;5.15;;
12591;SDS011;6361;52.120;5.108;2023-03-30T08:33:00;31.17;;;4.55;;
12591;SDS011;6361;52.120;5.108;2023-03-30T08:35:26;38.67;;;5.28;;
12591;SDS011;6361;52.120;5.108;2023-03-30T08:37:52;29.13;;;4.53;;
12591;SDS011;6361;52.120;5.108;2023-03-30T08:40:18;30.70;;;4.57;;
12591;SDS011;6361;52.120;5.108;2023-03-30T08:45:13;27.00;;;3.97;;
12591;SDS011;6361;52.120;5.108;2023-03-30T08:47:40;21.27;;;3.90;;
12591;SDS011;6361;52.120;5.108;2023-03-30T08:50:14;27.25;;;5.03;;
12591;SDS011;6361;52.120;5.108;2023-03-30T08:52:40;26.98;;;4.50;;
12591;SDS011;6361;52.120;5.108;2023-03-30T08:55:49;27.65;;;4.47;;
12591;SDS011;6361;52.120;5.108;2023-03-30T08:58:11;29.67;;;3.88;;
12591;SDS011;6361;52.120;5.108;2023-03-30T09:01:07;27.63;;;4.35;;
12591;SDS011;6361;52.120;5.108;2023-03-30T09:09:01;26.20;;;4.07;;
12591;SDS011;6361;52.120;5.108;2023-03-30T09:11:33;24.25;;;4.22;;
12591;SDS011;6361;52.120;5.108;2023-03-30T09:14:01;28.15;;;4.85;;
12591;SDS011;6361;52.120;5.108;2023-03-30T09:16:43;23.25;;;4.13;;
12591;SDS011;6361;52.120;5.108;2023-03-30T09:19:17;29.80;;;4.75;;
12591;SDS011;6361;52.120;5.108;2023-03-30T09:21:46;22.63;;;4.70;;
12591;SDS011;6361;52.120;5.108;2023-03-30T09:24:15;30.67;;;4.85;;
12591;SDS011;6361;52.120;5.108;2023-03-30T09:26:46;33.75;;;4.97;;
12591;SDS011;6361;52.120;5.108;2023-03-30T09:29:19;30.25;;;4.70;;
12591;SDS011;6361;52.120;5.108;2023-03-30T09:32:12;25.17;;;4.88;;
12591;SDS011;6361;52.120;5.108;2023-03-30T09:34:44;38.63;;;5.57;;
12591;SDS011;6361;52.120;5.108;2023-03-30T09:37:12;30.20;;;4.85;;
12591;SDS011;6361;52.120;5.108;2023-03-30T09:39:42;26.80;;;4.25;;
12591;SDS011;6361;52.120;5.108;2023-03-30T09:45:16;27.55;;;5.38;;
12591;SDS011;6361;52.120;5.108;2023-03-30T09:47:45;30.95;;;4.53;;
12591;SDS011;6361;52.120;5.108;2023-03-30T09:50:15;29.27;;;5.43;;
12591;SDS011;6361;52.120;5.108;2023-03-30T09:52:57;33.65;;;4.90;;
12591;SDS011;6361;52.120;5.108;2023-03-30T09:58:11;34.63;;;5.18;;
12591;SDS011;6361;52.120;5.108;2023-03-30T10:00:45;29.63;;;4.63;;
12591;SDS011;6361;52.120;5.108;2023-03-30T10:03:21;30.52;;;3.83;;
12591;SDS011;6361;52.120;5.108;2023-03-30T10:06:00;37.40;;;5.13;;
12591;SDS011;6361;52.120;5.108;2023-03-30T10:08:27;26.45;;;4.75;;
12591;SDS011;6361;52.120;5.108;2023-03-30T10:10:53;28.30;;;4.50;;
12591;SDS011;6361;52.120;5.108;2023-03-30T10:13:23;29.98;;;4.68;;
12591;SDS011;6361;52.120;5.108;2023-03-30T10:16:01;32.10;;;4.85;;
12591;SDS011;6361;52.120;5.108;2023-03-30T10:18:44;35.45;;;5.45;;
12591;SDS011;6361;52.120;5.108;2023-03-30T10:23:39;34.70;;;4.30;;
12591;SDS011;6361;52.120;5.108;2023-03-30T10:26:13;28.27;;;4.30;;
12591;SDS011;6361;52.120;5.108;2023-03-30T10:29:00;26.85;;;3.58;;
12591;SDS011;6361;52.120;5.108;2023-03-30T10:31:28;32.35;;;4.10;;
12591;SDS011;6361;52.120;5.108;2023-03-30T10:33:58;27.65;;;4.18;;
12591;SDS011;6361;52.120;5.108;2023-03-30T10:36:29;28.55;;;4.15;;
12591;SDS011;6361;52.120;5.108;2023-03-30T10:39:01;26.50;;;3.25;;
12591;SDS011;6361;52.120;5.108;2023-03-30T10:41:46;27.45;;;4.22;;
12591;SDS011;6361;52.120;5.108;2023-03-30T10:46:41;23.23;;;3.47;;
12591;SDS011;6361;52.120;5.108;2023-03-30T10:54:18;33.03;;;4.75;;
12591;SDS011;6361;52.120;5.108;2023-03-30T10:56:56;24.33;;;4.32;;
12591;SDS011;6361;52.120;5.108;2023-03-30T11:05:06;24.05;;;3.47;;
12591;SDS011;6361;52.120;5.108;2023-03-30T11:07:40;25.40;;;3.55;;
12591;SDS011;6361;52.120;5.108;2023-03-30T11:10:16;31.92;;;4.68;;
12591;SDS011;6361;52.120;5.108;2023-03-30T11:12:46;33.05;;;4.45;;
12591;SDS011;6361;52.120;5.108;2023-03-30T11:18:36;22.98;;;3.45;;
12591;SDS011;6361;52.120;5.108;2023-03-30T11:21:11;28.30;;;4.10;;
12591;SDS011;6361;52.120;5.108;2023-03-30T11:23:53;26.77;;;3.80;;
12591;SDS011;6361;52.120;5.108;2023-03-30T11:26:22;23.95;;;3.40;;
12591;SDS011;6361;52.120;5.108;2023-03-30T11:28:51;25.83;;;4.38;;
12591;SDS011;6361;52.120;5.108;2023-03-30T11:31:26;28.08;;;3.65;;
12591;SDS011;6361;52.120;5.108;2023-03-30T11:34:06;28.70;;;3.92;;
12591;SDS011;6361;52.120;5.108;2023-03-30T11:36:39;25.35;;;3.38;;
12591;SDS011;6361;52.120;5.108;2023-03-30T11:39:13;21.65;;;3.92;;
12591;SDS011;6361;52.120;5.108;2023-03-30T11:41:41;26.35;;;4.10;;
12591;SDS011;6361;52.120;5.108;2023-03-30T11:44:10;23.05;;;3.80;;
12591;SDS011;6361;52.120;5.108;2023-03-30T11:52:15;26.40;;;3.67;;
12591;SDS011;6361;52.120;5.108;2023-03-30T11:57:43;31.50;;;4.68;;
12591;SDS011;6361;52.120;5.108;2023-03-30T12:05:28;24.85;;;4.00;;
12591;SDS011;6361;52.120;5.108;2023-03-30T12:10:53;26.02;;;4.15;;
12591;SDS011;6361;52.120;5.108;2023-03-30T12:13:22;29.58;;;4.47;;
12591;SDS011;6361;52.120;5.108;2023-03-30T12:15:59;26.80;;;4.57;;
12591;SDS011;6361;52.120;5.108;2023-03-30T12:18:32;17.83;;;3.15;;
12591;SDS011;6361;52.120;5.108;2023-03-30T12:24:04;26.27;;;4.20;;
12591;SDS011;6361;52.120;5.108;2023-03-30T12:26:46;29.05;;;4.75;;
12591;SDS011;6361;52.120;5.108;2023-03-30T12:29:14;31.27;;;4.70;;
12591;SDS011;6361;52.120;5.108;2023-03-30T12:34:27;31.60;;;4.50;;
12591;SDS011;6361;52.120;5.108;2023-03-30T12:37:38;31.30;;;4.70;;
12591;SDS011;6361;52.120;5.108;2023-03-30T12:39:52;27.67;;;4.20;;
12591;SDS011;6361;52.120;5.108;2023-03-30T13:04:09;28.27;;;4.43;;
12591;SDS011;6361;52.120;5.108;2023-03-30T13:10:34;35.72;;;4.47;;
12591;SDS011;6361;52.120;5.108;2023-03-30T13:12:55;24.58;;;4.85;;
12591;SDS011;6361;52.120;5.108;2023-03-30T13:15:32;35.00;;;4.53;;
12591;SDS011;6361;52.120;5.108;2023-03-30T13:20:29;27.75;;;4.43;;
12591;SDS011;6361;52.120;5.108;2023-03-30T13:33:44;28.17;;;4.18;;
12591;SDS011;6361;52.120;5.108;2023-03-30T13:36:16;32.58;;;4.82;;
12591;SDS011;6361;52.120;5.108;2023-03-30T13:38:48;31.85;;;4.90;;
12591;SDS011;6361;52.120;5.108;2023-03-30T13:41:40;30.55;;;4.28;;
12591;SDS011;6361;52.120;5.108;2023-03-30T13:46:53;30.75;;;4.20;;
12591;SDS011;6361;52.120;5.108;2023-03-30T13:52:13;27.48;;;4.03;;
12591;SDS011;6361;52.120;5.108;2023-03-30T13:54:41;30.65;;;4.20;;
12591;SDS011;6361;52.120;5.108;2023-03-30T13:57:08;31.58;;;3.95;;
12591;SDS011;6361;52.120;5.108;2023-03-30T13:59:37;23.70;;;3.85;;
12591;SDS011;6361;52.120;5.108;2023-03-30T14:02:06;27.67;;;4.45;;
12591;SDS011;6361;52.120;5.108;2023-03-30T14:04:34;28.30;;;4.57;;
12591;SDS011;6361;52.120;5.108;2023-03-30T14:07:06;21.52;;;3.33;;
12591;SDS011;6361;52.120;5.108;2023-03-30T14:09:43;23.83;;;3.60;;
12591;SDS011;6361;52.120;5.108;2023-03-30T14:12:11;21.63;;;3.53;;
12591;SDS011;6361;52.120;5.108;2023-03-30T14:14:39;25.38;;;3.50;;
12591;SDS011;6361;52.120;5.108;2023-03-30T14:17:22;22.33;;;3.50;;
12591;SDS011;6361;52.120;5.108;2023-03-30T14:20:04;27.08;;;4.38;;
12591;SDS011;6361;52.120;5.108;2023-03-30T14:22:37;24.80;;;4.10;;
12591;SDS011;6361;52.120;5.108;2023-03-30T14:25:05;26.50;;;4.50;;
12591;SDS011;6361;52.120;5.108;2023-03-30T14:27:46;26.58;;;3.85;;
12591;SDS011;6361;52.120;5.108;2023-03-30T14:30:19;21.08;;;3.10;;
12591;SDS011;6361;52.120;5.108;2023-03-30T14:32:45;24.10;;;4.00;;
12591;SDS011;6361;52.120;5.108;2023-03-30T14:35:14;25.58;;;3.90;;
12591;SDS011;6361;52.120;5.108;2023-03-30T14:37:42;19.48;;;3.83;;
12591;SDS011;6361;52.120;5.108;2023-03-30T14:40:17;26.45;;;3.75;;
12591;SDS011;6361;52.120;5.108;2023-03-30T14:42:43;19.13;;;3.58;;
12591;SDS011;6361;52.120;5.108;2023-03-30T14:45:09;22.67;;;4.28;;
12591;SDS011;6361;52.120;5.108;2023-03-30T14:47:39;19.33;;;3.33;;
12591;SDS011;6361;52.120;5.108;2023-03-30T14:50:05;18.23;;;3.28;;
12591;SDS011;6361;52.120;5.108;2023-03-30T14:52:39;32.25;;;4.25;;
12591;SDS011;6361;52.120;5.108;2023-03-30T14:55:06;25.38;;;4.05;;
12591;SDS011;6361;52.120;5.108;2023-03-30T14:57:36;20.83;;;3.00;;
12591;SDS011;6361;52.120;5.108;2023-03-30T15:00:04;18.80;;;3.10;;
12591;SDS011;6361;52.120;5.108;2023-03-30T15:02:44;22.00;;;3.70;;
12591;SDS011;6361;52.120;5.108;2023-03-30T15:05:13;27.23;;;4.00;;
12591;SDS011;6361;52.120;5.108;2023-03-30T15:07:40;23.42;;;3.80;;
12591;SDS011;6361;52.120;5.108;2023-03-30T15:10:06;24.02;;;3.58;;
12591;SDS011;6361;52.120;5.108;2023-03-30T15:12:32;21.42;;;3.65;;
12591;SDS011;6361;52.120;5.108;2023-03-30T15:15:00;20.20;;;3.20;;
12591;SDS011;6361;52.120;5.108;2023-03-30T15:17:28;26.85;;;3.33;;
12591;SDS011;6361;52.120;5.108;2023-03-30T15:19:55;23.67;;;3.58;;
12591;SDS011;6361;52.120;5.108;2023-03-30T15:25:04;23.80;;;3.95;;
12591;SDS011;6361;52.120;5.108;2023-03-30T15:27:32;18.50;;;3.22;;
12591;SDS011;6361;52.120;5.108;2023-03-30T15:29:58;19.00;;;3.35;;
12591;SDS011;6361;52.120;5.108;2023-03-30T15:32:25;22.70;;;3.58;;
12591;SDS011;6361;52.120;5.108;2023-03-30T15:35:07;22.92;;;3.88;;
12591;SDS011;6361;52.120;5.108;2023-03-30T15:40:43;24.70;;;3.95;;
12591;SDS011;6361;52.120;5.108;2023-03-30T15:43:29;19.98;;;3.38;;
12591;SDS011;6361;52.120;5.108;2023-03-30T15:46:07;20.10;;;2.95;;
12591;SDS011;6361;52.120;5.108;2023-03-30T15:51:13;16.83;;;3.22;;
12591;SDS011;6361;52.120;5.108;2023-03-30T15:58:53;16.50;;;3.15;;
12591;SDS011;6361;52.120;5.108;2023-03-30T16:01:21;16.05;;;2.85;;
12591;SDS011;6361;52.120;5.108;2023-03-30T16:03:54;14.60;;;2.60;;
12591;SDS011;6361;52.120;5.108;2023-03-30T16:06:21;13.77;;;2.33;;
12591;SDS011;6361;52.120;5.108;2023-03-30T16:08:46;12.88;;;2.25;;
12591;SDS011;6361;52.120;5.108;2023-03-30T16:11:12;17.00;;;3.42;;
12591;SDS011;6361;52.120;5.108;2023-03-30T16:13:41;18.17;;;3.05;;
12591;SDS011;6361;52.120;5.108;2023-03-30T16:16:07;11.75;;;2.30;;
12591;SDS011;6361;52.120;5.108;2023-03-30T16:18:36;17.23;;;2.38;;
12591;SDS011;6361;52.120;5.108;2023-03-30T16:21:01;20.35;;;3.38;;
12591;SDS011;6361;52.120;5.108;2023-03-30T16:23:26;15.35;;;2.55;;
12591;SDS011;6361;52.120;5.108;2023-03-30T16:25:52;20.00;;;2.75;;
12591;SDS011;6361;52.120;5.108;2023-03-30T16:28:17;14.43;;;2.83;;
12591;SDS011;6361;52.120;5.108;2023-03-30T16:30:43;16.83;;;2.40;;
12591;SDS011;6361;52.120;5.108;2023-03-30T16:33:10;17.27;;;2.83;;
12591;SDS011;6361;52.120;5.108;2023-03-30T16:35:35;11.35;;;2.33;;
12591;SDS011;6361;52.120;5.108;2023-03-30T16:38:01;18.52;;;3.17;;
12591;SDS011;6361;52.120;5.108;2023-03-30T16:40:31;17.35;;;2.72;;
12591;SDS011;6361;52.120;5.108;2023-03-30T16:42:59;11.10;;;2.25;;
12591;SDS011;6361;52.120;5.108;2023-03-30T16:45:24;15.27;;;2.72;;
12591;SDS011;6361;52.120;5.108;2023-03-30T16:47:50;16.27;;;3.03;;
12591;SDS011;6361;52.120;5.108;2023-03-30T16:50:17;13.35;;;2.60;;
12591;SDS011;6361;52.120;5.108;2023-03-30T16:52:47;18.40;;;3.15;;
12591;SDS011;6361;52.120;5.108;2023-03-30T16:55:13;18.25;;;2.72;;
12591;SDS011;6361;52.120;5.108;2023-03-30T16:57:39;15.80;;;2.50;;
12591;SDS011;6361;52.120;5.108;2023-03-30T17:00:11;15.60;;;2.95;;
12591;SDS011;6361;52.120;5.108;2023-03-30T17:02:38;19.88;;;2.95;;
12591;SDS011;6361;52.120;5.108;2023-03-30T17:05:03;17.63;;;2.55;;
12591;SDS011;6361;52.120;5.108;2023-03-30T17:07:29;12.77;;;2.50;;
12591;SDS011;6361;52.120;5.108;2023-03-30T17:09:55;15.77;;;2.97;;
12591;SDS011;6361;52.120;5.108;2023-03-30T17:12:20;21.98;;;3.22;;
12591;SDS011;6361;52.120;5.108;2023-03-30T17:14:45;16.88;;;2.58;;
12591;SDS011;6361;52.120;5.108;2023-03-30T17:17:11;10.88;;;1.98;;
12591;SDS011;6361;52.120;5.108;2023-03-30T17:19:36;17.40;;;3.22;;
12591;SDS011;6361;52.120;5.108;2023-03-30T17:22:02;16.17;;;2.90;;
12591;SDS011;6361;52.120;5.108;2023-03-30T17:24:27;18.95;;;2.70;;
12591;SDS011;6361;52.120;5.108;2023-03-30T17:26:53;19.30;;;3.53;;
12591;SDS011;6361;52.120;5.108;2023-03-30T17:29:20;15.82;;;3.03;;
12591;SDS011;6361;52.120;5.108;2023-03-30T17:31:45;14.70;;;2.53;;
12591;SDS011;6361;52.120;5.108;2023-03-30T17:34:10;18.65;;;2.95;;
12591;SDS011;6361;52.120;5.108;2023-03-30T17:36:36;16.02;;;2.70;;